Terminal Aerodrome Forecast
Issued by NWS Caribou, ME

Home | Current Version | Previous Version | Text Only | Print | Product List | Glossary On
Versions: 1 2 3 4 5 6 7 8 9 10 11 12 13 14 15 16 17
000
FTUS41 KCAR 231913 AAA
TAFCAR
TAF AMD
KCAR 231913Z 2319/2418 12009KT 1/4SM PL OVC015
      TEMPO 2319/2321 1/2SM FZRAPL
     FM232200 11006KT 5SM -FZRA OVC003
     FM240000 15006KT 6SM -RA OVC004
     FM240700 27008KT 5SM -RA OVC008
     FM241100 28006KT 3SM BR VCSH OVC008
     FM241700 28010G18KT P6SM BKN015=

USA.gov is the U.S. government's official web portal to all federal, state and local government web resources and services.